ADDS METAR Data INFO
IDs: Format: Raw Decoded Include TAF

Data at: 0351 UTC 20 Feb 2018

KPBX 200335Z AUTO 18007KT 10SM SCT065 18/12 A3024 RMK AO2 T01780117
KPBX 200315Z AUTO 17008KT 10SM BKN065 18/12 A3024 RMK AO2 T01770120
KPBX 200255Z AUTO 18005KT 10SM OVC065 18/12 A3024 RMK AO2 T01770121
KPBX 200235Z AUTO 19005KT 10SM BKN065 18/12 A3023 RMK AO2 T01750121
KPBX 200215Z AUTO 18006KT 10SM SCT065 18/12 A3023 RMK AO2 LTG DSNT W T01780122
KPBX 200155Z AUTO 17005KT 10SM CLR 18/12 A3023 RMK AO2 T01770122
KPBX 200135Z AUTO 16005KT 10SM CLR 18/12 A3023 RMK AO2 T01790121
KPBX 200115Z AUTO 17004KT 10SM CLR 18/12 A3023 RMK AO2 T01810120
KPBX 200055Z AUTO 18006KT 10SM CLR 18/12 A3023 RMK AO2 T01830117
KPBX 200035Z AUTO 18007KT 10SM CLR 19/12 A3024 RMK AO2 T01890118
KPBX 200015Z AUTO 19005KT 10SM SCT050 19/12 A3024 RMK AO2 T01900117
KPBX 192355Z AUTO 19003KT 10SM SCT050 SCT060 19/12 A3024 RMK AO2 T01900116 10232 20190
KPBX 192335Z AUTO 18004KT 10SM CLR 20/12 A3023 RMK AO2 T01950116
KPBX 192315Z AUTO 18005KT 10SM SCT048 SCT060 20/12 A3022 RMK AO2 LTG DSNT W T01970116
KPBX 192255Z AUTO 17007KT 10SM OVC050 20/12 A3021 RMK AO2 T02010116
KPBX 192235Z AUTO 19006KT 10SM OVC050 21/12 A3021 RMK AO2 T02050116
KPBX 192215Z AUTO 17007KT 10SM OVC050 21/12 A3021 RMK AO2 T02060116
KPBX 192155Z AUTO 20005KT 10SM BKN050 BKN055 21/12 A3020 RMK AO2 T02100119
KPBX 192135Z AUTO 18005G17KT 150V210 10SM SCT050 SCT070 21/12 A3020 RMK AO2 T02120120
KPBX 192115Z AUTO 20006G16KT 10SM SCT070 22/12 A3020 RMK AO2 T02150123
KPBX 192055Z AUTO 21010G14KT 160V250 10SM BKN070 22/13 A3020 RMK AO2 T02210126
KPBX 192035Z AUTO 17006G15KT 10SM SCT041 BKN070 BKN080 22/13 A3020 RMK AO2 T02220127
KPBX 192015Z AUTO 20008G21KT 160V250 10SM OVC070 22/13 A3021 RMK AO2 T02220127
KPBX 191955Z AUTO 19010G17KT 10SM SCT044 OVC070 22/13 A3021 RMK AO2 T02170127
KPBX 191935Z AUTO 21009G14KT 150V230 10SM SCT044 SCT049 OVC070 22/13 A3020 RMK AO2 T02220130
KPBX 191915Z AUTO 20009G16KT 10SM BKN046 BKN060 OVC070 23/13 A3020 RMK AO2 T02300133
KPBX 191855Z AUTO 20006G14KT 10SM BKN048 OVC050 22/13 A3020 RMK AO2 T02220129
KPBX 191835Z AUTO 21013G19KT 10SM SCT046 BKN055 23/13 A3020 RMK AO2 T02250128
KPBX 191815Z AUTO 20007G19KT 160V220 10SM SCT044 SCT049 SCT075 23/13 A3020 RMK AO2 T02310129
KPBX 191755Z AUTO 20013G23KT 160V230 10SM SCT044 BKN075 23/13 A3021 RMK AO2 T02270129 10228 20124
KPBX 191735Z AUTO 19008G15KT 120V240 10SM BKN040 BKN046 22/14 A3021 RMK AO2 T02180135
KPBX 191715Z AUTO 21009KT 10SM BKN038 21/13 A3022 RMK AO2 T02080134
KPBX 191655Z AUTO 17006KT 10SM SCT036 SCT043 BKN055 19/13 A3023 RMK AO2 T01930128
KPBX 191635Z AUTO 17007KT 130V190 10SM SCT032 SCT055 19/13 A3023 RMK AO2 T01860126
KPBX 191615Z AUTO 17008KT 10SM SCT065 17/12 A3023 RMK AO2 T01740120
KPBX 191555Z AUTO 17008KT 10SM BKN065 17/12 A3023 RMK AO2 T01670119
KPBX 191535Z AUTO 17006KT 10SM SCT120 16/12 A3023 RMK AO2 T01620117
KPBX 191515Z AUTO 17008KT 10SM SCT060 16/12 A3023 RMK AO2 T01570115
KPBX 191455Z AUTO 17006KT 10SM CLR 15/12 A3024 RMK AO2 T01540116
KPBX 191435Z AUTO 17005KT 10SM CLR 15/11 A3023 RMK AO2 T01450111
KPBX 191415Z AUTO 16004KT 10SM SCT049 14/11 A3024 RMK AO2 T01410110
KPBX 191355Z AUTO 17007KT 10SM BKN049 BKN060 BKN120 14/11 A3024 RMK AO2 T01420109
KPBX 191335Z AUTO 17008KT 10SM SCT037 BKN060 OVC120 14/11 A3024 RMK AO2 T01350107
KPBX 191315Z AUTO 17008KT 10SM SCT048 SCT050 OVC065 13/11 A3024 RMK AO2 T01330106
KPBX 191255Z AUTO 17007KT 10SM SCT043 SCT055 OVC065 13/11 A3023 RMK AO2 T01290106
KPBX 191235Z AUTO 17006KT 10SM SCT043 SCT055 OVC065 13/11 A3023 RMK AO2 T01270106
KPBX 191215Z AUTO 17007KT 10SM OVC060 13/11 A3022 RMK AO2 T01250106
KPBX 191155Z AUTO 16007KT 10SM OVC060 13/11 A3022 RMK AO2 T01250105 10125 20110
KPBX 191135Z AUTO 16006KT 10SM OVC060 12/11 A3021 RMK AO2 T01230105
KPBX 191115Z AUTO 16006KT 10SM OVC060 12/10 A3021 RMK AO2 T01210103
KPBX 191055Z AUTO 16008KT 10SM OVC060 12/10 A3021 RMK AO2 T01200100
KPBX 191035Z AUTO 15009G14KT 10SM OVC070 12/10 A3021 RMK AO2 T01190100
KPBX 191015Z AUTO 16007KT 10SM SCT050 OVC060 12/10 A3020 RMK AO2 T01170100
KPBX 190955Z AUTO 15007KT 10SM BKN049 OVC060 12/10 A3020 RMK AO2 T01150100
KPBX 190935Z AUTO 16006G14KT 10SM -RA OVC060 12/10 A3020 RMK AO2 T01150100
KPBX 190915Z AUTO 16007KT 130V190 10SM BKN060 BKN080 OVC100 12/10 A3019 RMK AO2 T01150098
KPBX 190855Z AUTO 15009G14KT 10SM SCT070 OVC100 12/09 A3019 RMK AO2 T01150090
KPBX 190835Z AUTO 16009G14KT 10SM SCT039 BKN070 OVC100 11/08 A3019 RMK AO2 T01130082
KPBX 190815Z AUTO 17007KT 10SM OVC037 12/07 A3019 RMK AO2 T01160073
KPBX 190755Z AUTO 17007KT 10SM OVC035 12/06 A3019 RMK AO2 T01160063
KPBX 190735Z AUTO 16006KT 10SM -RA OVC035 11/06 A3019 RMK AO2 T01120057
KPBX 190715Z AUTO 17006KT 140V210 10SM -RA OVC035 11/05 A3018 RMK AO2 T01130052
KPBX 190655Z AUTO 15005KT 10SM OVC035 12/04 A3018 RMK AO2 T01200036
KPBX 190635Z AUTO 17005KT 10SM OVC037 12/03 A3018 RMK AO2 T01150034
KPBX 190615Z AUTO 16008KT 10SM OVC037 11/03 A3016 RMK AO2 T01130029
KPBX 190555Z AUTO 17006KT 130V190 10SM DZ OVC037 12/03 A3016 RMK AO2 T01150025 10115 20078
KPBX 190535Z AUTO 15007KT 10SM OVC037 11/02 A3017 RMK AO2 T01140020
KPBX 190515Z AUTO 17005KT 10SM BKN037 BKN090 BKN110 11/02 A3018 RMK AO2 T01100016
KPBX 190455Z AUTO 15006KT 10SM SCT120 11/01 A3016 RMK AO2 T01080013 401130010
KPBX 190435Z AUTO 15006KT 10SM CLR 10/01 A3016 RMK AO2 T01030011
KPBX 190415Z AUTO 16005KT 10SM CLR 10/01 A3018 RMK AO2 T01000010
KPBX 190355Z AUTO 16005KT 10SM CLR 10/01 A3018 RMK AO2 T00960006
KPBX 190335Z AUTO 17005KT 10SM CLR 10/00 A3019 RMK AO2 T00950004
KPBX 190315Z AUTO 18004KT 10SM CLR 09/00 A3019 RMK AO2 T00870000
KPBX 190255Z AUTO 18003KT 10SM CLR 08/00 A3019 RMK AO2 T00820000
KPBX 190235Z AUTO 18004KT 10SM CLR 09/00 A3019 RMK AO2 T00851001
KPBX 190215Z AUTO 16003KT 10SM CLR 08/00 A3020 RMK AO2 T00831002
KPBX 190155Z AUTO 14004KT 10SM CLR 08/00 A3020 RMK AO2 T00841004
KPBX 190135Z AUTO 12005KT 10SM CLR 09/M01 A3021 RMK AO2 T00921006
KPBX 190115Z AUTO 12004KT 10SM CLR 09/M01 A3021 RMK AO2 T00911006
KPBX 190055Z AUTO 11004KT 10SM CLR 10/00 A3021 RMK AO2 T00951005
KPBX 190035Z AUTO 06003KT 10SM CLR 09/M01 A3022 RMK AO2 T00851006
KPBX 190015Z AUTO 02003KT 10SM CLR 09/M01 A3022 RMK AO2 T00861007
KPBX 182355Z AUTO 03003KT 10SM CLR 09/M01 A3021 RMK AO2 T00881007 10113 20072
KPBX 182335Z AUTO 04004KT 10SM CLR 08/M01 A3021 RMK AO2 T00841006
KPBX 182315Z AUTO 06004KT 10SM CLR 09/00 A3021 RMK AO2 T00891005
KPBX 182255Z AUTO 04004KT 10SM CLR 10/M01 A3021 RMK AO2 T01041009
KPBX 182235Z AUTO 12003KT 10SM CLR 11/M01 A3022 RMK AO2 T01101011
KPBX 182215Z AUTO 13003KT 10SM CLR 11/M01 A3022 RMK AO2 T01111010
KPBX 182155Z AUTO 00000KT 10SM CLR 11/M01 A3023 RMK AO2 T01081012
KPBX 182135Z AUTO 00000KT 10SM CLR 11/M01 A3024 RMK AO2 T01111014
KPBX 182115Z AUTO 13005KT 10SM CLR 11/M01 A3024 RMK AO2 T01111012
KPBX 182055Z AUTO 08004KT 10SM CLR 11/M01 A3025 RMK AO2 T01121007
KPBX 182035Z AUTO 11005KT 10SM CLR 11/M01 A3025 RMK AO2 T01051014
KPBX 182015Z AUTO 08003KT 10SM CLR 11/M01 A3026 RMK AO2 T01051007
KPBX 181955Z AUTO 09004KT 10SM CLR 10/M01 A3026 RMK AO2 T00991007
KPBX 181935Z AUTO 00000KT 10SM CLR 09/00 A3027 RMK AO2 T00931004
KPBX 181915Z AUTO 10003KT 10SM CLR 09/00 A3028 RMK AO2 T00911004
KPBX 181855Z AUTO 15004KT 10SM CLR 09/00 A3030 RMK AO2 T00891001
KPBX 181835Z AUTO 13005KT 10SM CLR 09/00 A3031 RMK AO2 T00880000
KPBX 181815Z AUTO 00000KT 10SM CLR 07/00 A3032 RMK AO2 T00741005
KPBX 181755Z AUTO 12005KT 10SM CLR 07/00 A3033 RMK AO2 T00731002 10073 20010
KPBX 181735Z AUTO 17003KT 10SM CLR 07/00 A3034 RMK AO2 T00701001
KPBX 181715Z AUTO 16004KT 10SM CLR 07/00 A3034 RMK AO2 T00661002
KPBX 181655Z AUTO 00000KT 10SM SCT027 06/00 A3035 RMK AO2 T00581003
KPBX 181635Z AUTO 00000KT 10SM SCT025 05/00 A3036 RMK AO2 T00531001
KPBX 181615Z AUTO 12004KT 10SM SCT025 05/M01 A3036 RMK AO2 T00501006
KPBX 181555Z AUTO 00000KT 10SM CLR 04/M01 A3037 RMK AO2 T00371011